Time;durP1;ratioP1;P1;durP2;ratioP2;P2;SDS_P1;SDS_P2;PMS_P1;PMS_P2;Temp;Humidity;BMP_temperature;BMP_pressure;BME280_temperature;BME280_humidity;BME280_pressure;Samples;Min_cycle;Max_cycle;Signal;HPM_P1;HPM_P2
2023/12/27 00:01:13;;;;;;;12.10;6.10;;;;;;;;;;4997595;28;20619;-56
2023/12/27 00:03:38;;;;;;;12.90;6.60;;;;;;;;;;5000445;28;20124;-53
2023/12/27 00:06:03;;;;;;;10.18;4.47;;;;;;;;;;4997407;28;20100;-56
2023/12/27 00:08:29;;;;;;;10.30;5.13;;;;;;;;;;5000005;28;20021;-56
2023/12/27 00:10:54;;;;;;;9.07;5.30;;;;;;;;;;4997609;28;20644;-54
2023/12/27 00:13:20;;;;;;;6.85;4.97;;;;;;;;;;4999680;28;20492;-50
2023/12/27 00:15:45;;;;;;;9.30;4.55;;;;;;;;;;4997805;28;20080;-55
2023/12/27 00:18:11;;;;;;;11.63;4.47;;;;;;;;;;5035841;28;20686;-56
2023/12/27 00:20:36;;;;;;;8.25;4.85;;;;;;;;;;5036594;28;20105;-53
2023/12/27 00:23:02;;;;;;;9.27;4.75;;;;;;;;;;5059508;28;20077;-54
2023/12/27 00:25:27;;;;;;;10.13;4.63;;;;;;;;;;5051933;28;20036;-55
2023/12/27 00:27:52;;;;;;;11.15;5.18;;;;;;;;;;5052489;28;20024;-54
2023/12/27 00:30:18;;;;;;;9.38;4.32;;;;;;;;;;5061695;28;20388;-54
2023/12/27 00:32:43;;;;;;;10.77;4.68;;;;;;;;;;5051465;28;20032;-55
2023/12/27 00:35:08;;;;;;;13.02;4.90;;;;;;;;;;5052289;28;20097;-55
2023/12/27 00:37:34;;;;;;;12.50;5.03;;;;;;;;;;5057735;28;20028;-57
2023/12/27 00:39:59;;;;;;;8.30;4.30;;;;;;;;;;5054997;28;20177;-57
2023/12/27 00:42:24;;;;;;;9.45;4.95;;;;;;;;;;5057042;28;20043;-55
2023/12/27 00:44:50;;;;;;;7.13;4.30;;;;;;;;;;5050451;28;20650;-56
2023/12/27 00:47:16;;;;;;;7.95;4.00;;;;;;;;;;5058556;28;20179;-56
2023/12/27 00:49:41;;;;;;;6.85;3.92;;;;;;;;;;5050184;28;20039;-55
2023/12/27 00:52:06;;;;;;;10.15;4.22;;;;;;;;;;5055834;28;20541;-53
2023/12/27 00:54:31;;;;;;;8.80;3.83;;;;;;;;;;5049386;28;20306;-55
2023/12/27 00:56:57;;;;;;;9.35;3.88;;;;;;;;;;5052888;28;20494;-53
2023/12/27 00:59:22;;;;;;;9.07;3.63;;;;;;;;;;5051140;28;20052;-56
2023/12/27 01:01:47;;;;;;;6.35;3.85;;;;;;;;;;5037631;28;20052;-55
2023/12/27 01:04:13;;;;;;;12.75;4.40;;;;;;;;;;5050491;28;20028;-52
2023/12/27 01:06:38;;;;;;;13.82;4.43;;;;;;;;;;5051804;28;20111;-56
2023/12/27 01:09:04;;;;;;;6.68;3.88;;;;;;;;;;5050166;28;20059;-54
2023/12/27 01:11:30;;;;;;;11.02;4.55;;;;;;;;;;5050790;28;20115;-56
2023/12/27 01:13:55;;;;;;;7.53;3.85;;;;;;;;;;5051607;28;20024;-56
2023/12/27 01:16:20;;;;;;;8.02;4.43;;;;;;;;;;5050946;28;20031;-56
2023/12/27 01:18:45;;;;;;;9.40;3.97;;;;;;;;;;5051938;28;21518;-55
2023/12/27 01:21:13;;;;;;;9.25;3.88;;;;;;;;;;5051203;28;20038;-55
2023/12/27 01:23:39;;;;;;;9.35;4.43;;;;;;;;;;5051323;28;20047;-56
2023/12/27 01:26:04;;;;;;;7.47;3.65;;;;;;;;;;5050498;28;20032;-56
2023/12/27 01:28:29;;;;;;;10.43;4.10;;;;;;;;;;5063808;28;20245;-55
2023/12/27 01:30:55;;;;;;;6.60;3.95;;;;;;;;;;5050713;28;20032;-57
2023/12/27 01:33:20;;;;;;;4.82;3.20;;;;;;;;;;5051654;28;21363;-58
2023/12/27 01:35:45;;;;;;;8.88;3.95;;;;;;;;;;5051168;28;20043;-56
2023/12/27 01:38:10;;;;;;;6.80;3.65;;;;;;;;;;5052884;28;20470;-53
2023/12/27 01:40:36;;;;;;;5.65;3.88;;;;;;;;;;5049508;28;20048;-56
2023/12/27 01:43:01;;;;;;;7.07;4.05;;;;;;;;;;5052953;28;20034;-54
2023/12/27 01:45:26;;;;;;;7.45;3.72;;;;;;;;;;5058860;28;20122;-52
2023/12/27 01:47:52;;;;;;;8.07;4.15;;;;;;;;;;5053251;28;20592;-52
2023/12/27 01:50:17;;;;;;;8.55;4.18;;;;;;;;;;5017757;28;20032;-56
2023/12/27 01:52:43;;;;;;;6.57;3.88;;;;;;;;;;5050644;28;20040;-55
2023/12/27 01:55:09;;;;;;;9.25;3.70;;;;;;;;;;5048955;28;20128;-56
2023/12/27 01:57:35;;;;;;;6.97;4.22;;;;;;;;;;5050137;28;20028;-56
2023/12/27 02:00:00;;;;;;;10.85;4.50;;;;;;;;;;5049576;28;20048;-56
2023/12/27 02:02:25;;;;;;;9.07;3.95;;;;;;;;;;5038065;28;20860;-53
2023/12/27 02:04:51;;;;;;;10.27;4.50;;;;;;;;;;5052163;28;20040;-54
2023/12/27 02:07:16;;;;;;;6.30;3.80;;;;;;;;;;5053240;28;20766;-53
2023/12/27 02:09:42;;;;;;;9.13;3.97;;;;;;;;;;5049429;28;20109;-54
2023/12/27 02:12:07;;;;;;;8.23;3.70;;;;;;;;;;5052565;28;20386;-56
2023/12/27 02:14:33;;;;;;;7.90;3.83;;;;;;;;;;5050928;28;20110;-53
2023/12/27 02:16:59;;;;;;;6.75;3.65;;;;;;;;;;4997845;28;20040;-55
2023/12/27 02:19:25;;;;;;;7.40;3.58;;;;;;;;;;5050089;28;20033;-54
2023/12/27 02:21:51;;;;;;;7.13;3.78;;;;;;;;;;5052922;28;20032;-54
2023/12/27 02:24:18;;;;;;;10.68;4.45;;;;;;;;;;5060357;28;20063;-53
2023/12/27 02:26:43;;;;;;;7.88;4.22;;;;;;;;;;5055603;28;20270;-55
2023/12/27 02:29:08;;;;;;;8.73;4.10;;;;;;;;;;5050041;28;20361;-55
2023/12/27 02:31:33;;;;;;;8.13;4.25;;;;;;;;;;5051466;28;20423;-51
2023/12/27 02:33:59;;;;;;;6.18;4.10;;;;;;;;;;5050766;28;20474;-53
2023/12/27 02:36:24;;;;;;;8.30;3.58;;;;;;;;;;5031416;28;20490;-52
2023/12/27 02:38:49;;;;;;;8.02;4.43;;;;;;;;;;5049421;28;20336;-54
2023/12/27 02:41:15;;;;;;;6.97;4.03;;;;;;;;;;5033113;28;20036;-52
2023/12/27 02:43:40;;;;;;;9.38;4.93;;;;;;;;;;5058145;28;20047;-54
2023/12/27 02:46:05;;;;;;;10.65;3.65;;;;;;;;;;5055458;28;20047;-54
2023/12/27 02:48:30;;;;;;;7.50;3.67;;;;;;;;;;5051196;28;20037;-55
2023/12/27 02:50:56;;;;;;;6.28;3.33;;;;;;;;;;5050686;28;20502;-53
2023/12/27 02:53:22;;;;;;;7.65;3.60;;;;;;;;;;5050618;28;20041;-53
2023/12/27 02:55:48;;;;;;;5.80;3.00;;;;;;;;;;5034483;28;20082;-52
2023/12/27 02:58:14;;;;;;;4.70;3.00;;;;;;;;;;5018451;28;20838;-54
2023/12/27 03:00:39;;;;;;;4.63;2.72;;;;;;;;;;5049883;28;20311;-55
2023/12/27 03:03:05;;;;;;;4.05;2.53;;;;;;;;;;5052028;28;20541;-54
2023/12/27 03:05:30;;;;;;;3.70;2.33;;;;;;;;;;5049927;28;20044;-54
2023/12/27 03:07:55;;;;;;;3.65;2.40;;;;;;;;;;5050890;28;20078;-56
2023/12/27 03:10:20;;;;;;;5.93;2.58;;;;;;;;;;5048581;28;20115;-53
2023/12/27 03:12:46;;;;;;;6.18;2.38;;;;;;;;;;5050546;28;20040;-57
2023/12/27 03:15:11;;;;;;;4.13;1.90;;;;;;;;;;5050300;28;20033;-52
2023/12/27 03:17:36;;;;;;;4.88;1.80;;;;;;;;;;5049955;28;20031;-56
2023/12/27 03:20:02;;;;;;;4.43;2.05;;;;;;;;;;5048938;28;20028;-52
2023/12/27 03:22:27;;;;;;;4.25;2.00;;;;;;;;;;5061138;28;20241;-54
2023/12/27 03:24:53;;;;;;;6.68;2.05;;;;;;;;;;5049674;28;20047;-58
2023/12/27 03:27:18;;;;;;;4.75;1.85;;;;;;;;;;5049648;28;20059;-51
2023/12/27 03:29:43;;;;;;;3.35;1.90;;;;;;;;;;5050724;28;20024;-54
2023/12/27 03:32:08;;;;;;;3.22;1.65;;;;;;;;;;5051512;28;20040;-55
2023/12/27 03:34:34;;;;;;;8.70;2.47;;;;;;;;;;5048711;28;20086;-56
2023/12/27 03:36:59;;;;;;;3.53;1.75;;;;;;;;;;5051349;28;20029;-55
2023/12/27 03:39:24;;;;;;;7.35;2.00;;;;;;;;;;5051592;28;20137;-54
2023/12/27 03:41:50;;;;;;;3.15;1.80;;;;;;;;;;5053980;28;20028;-54
2023/12/27 03:44:15;;;;;;;3.25;1.80;;;;;;;;;;5053735;28;20032;-54
2023/12/27 03:46:40;;;;;;;4.95;2.80;;;;;;;;;;5059792;28;20056;-57
2023/12/27 03:49:05;;;;;;;4.80;3.20;;;;;;;;;;5052529;28;20741;-56
2023/12/27 03:51:31;;;;;;;7.53;3.20;;;;;;;;;;5054568;28;20043;-55
2023/12/27 03:53:56;;;;;;;7.05;4.00;;;;;;;;;;5057290;28;20506;-52
2023/12/27 03:56:21;;;;;;;6.55;3.83;;;;;;;;;;5052335;28;20031;-55
2023/12/27 03:58:47;;;;;;;6.30;3.28;;;;;;;;;;5054752;28;20147;-57
2023/12/27 04:01:12;;;;;;;4.75;2.92;;;;;;;;;;5052087;28;20082;-55
2023/12/27 04:03:37;;;;;;;5.47;2.80;;;;;;;;;;5055151;28;20058;-56
2023/12/27 04:06:03;;;;;;;6.35;2.75;;;;;;;;;;5052318;28;20544;-55
2023/12/27 04:08:28;;;;;;;4.97;2.67;;;;;;;;;;5055404;28;20245;-51
2023/12/27 04:10:53;;;;;;;22.85;8.60;;;;;;;;;;5053078;28;20027;-53
2023/12/27 04:13:18;;;;;;;55.80;16.67;;;;;;;;;;5056802;28;20409;-54
2023/12/27 04:15:44;;;;;;;67.55;18.15;;;;;;;;;;5051893;28;20036;-55
2023/12/27 04:18:11;;;;;;;18.08;7.10;;;;;;;;;;5034964;28;20082;-55
2023/12/27 04:20:37;;;;;;;37.85;12.35;;;;;;;;;;5056908;28;20067;-52
2023/12/27 04:23:02;;;;;;;41.75;13.10;;;;;;;;;;5058527;28;20119;-53
2023/12/27 04:25:27;;;;;;;22.58;9.55;;;;;;;;;;5050567;28;20141;-56
2023/12/27 04:27:53;;;;;;;29.40;11.00;;;;;;;;;;5053008;28;20058;-57
2023/12/27 04:30:18;;;;;;;57.42;15.07;;;;;;;;;;5052005;28;20066;-54
2023/12/27 04:32:43;;;;;;;46.67;14.00;;;;;;;;;;5054188;28;21984;-54
2023/12/27 04:35:08;;;;;;;44.05;13.93;;;;;;;;;;5050510;28;20032;-55
2023/12/27 04:37:34;;;;;;;26.88;8.98;;;;;;;;;;5061767;28;20040;-56
2023/12/27 04:39:59;;;;;;;22.52;6.60;;;;;;;;;;5052000;28;20383;-58
2023/12/27 04:42:24;;;;;;;11.57;5.13;;;;;;;;;;5052872;28;20548;-56
2023/12/27 04:44:50;;;;;;;14.70;5.35;;;;;;;;;;5060668;28;20028;-56
2023/12/27 04:47:15;;;;;;;13.82;5.45;;;;;;;;;;5057448;28;20053;-55
2023/12/27 04:49:40;;;;;;;8.43;4.22;;;;;;;;;;5051751;28;20494;-57
2023/12/27 04:52:05;;;;;;;7.40;4.05;;;;;;;;;;5053261;28;20024;-55
2023/12/27 04:54:31;;;;;;;7.70;4.28;;;;;;;;;;5052164;28;20702;-56
2023/12/27 04:56:56;;;;;;;8.18;4.18;;;;;;;;;;5007851;28;20037;-56
2023/12/27 04:59:22;;;;;;;7.35;3.72;;;;;;;;;;5051331;28;20028;-55
2023/12/27 05:01:47;;;;;;;10.25;4.60;;;;;;;;;;5055392;28;20647;-55
2023/12/27 05:04:12;;;;;;;13.25;5.70;;;;;;;;;;5036438;28;20020;-55
2023/12/27 05:06:38;;;;;;;15.30;7.40;;;;;;;;;;5038487;28;20024;-54
2023/12/27 05:09:06;;;;;;;19.50;7.50;;;;;;;;;;5050032;28;20063;-52
2023/12/27 05:11:31;;;;;;;13.98;6.28;;;;;;;;;;5051303;28;20036;-56
2023/12/27 05:13:57;;;;;;;15.82;7.22;;;;;;;;;;5052832;28;20029;-56
2023/12/27 05:16:22;;;;;;;13.80;6.97;;;;;;;;;;5051947;28;20147;-55
2023/12/27 05:18:48;;;;;;;13.13;6.07;;;;;;;;;;5053406;28;20023;-54
2023/12/27 05:21:14;;;;;;;14.60;6.93;;;;;;;;;;5064242;28;20024;-56
2023/12/27 05:23:39;;;;;;;12.90;5.65;;;;;;;;;;5051019;28;20800;-56
2023/12/27 05:26:05;;;;;;;8.20;5.00;;;;;;;;;;5049342;28;20038;-55
2023/12/27 05:28:31;;;;;;;8.20;4.95;;;;;;;;;;5052221;28;20059;-55
2023/12/27 05:30:56;;;;;;;10.75;4.50;;;;;;;;;;5049981;28;20027;-55
2023/12/27 05:33:23;;;;;;;6.50;3.45;;;;;;;;;;5051446;28;20552;-53
2023/12/27 05:35:48;;;;;;;6.35;3.17;;;;;;;;;;5052844;28;20032;-57
2023/12/27 05:38:14;;;;;;;4.72;3.30;;;;;;;;;;5063001;28;20036;-56
2023/12/27 05:40:39;;;;;;;9.25;3.95;;;;;;;;;;5050466;28;20028;-55
2023/12/27 05:43:04;;;;;;;6.53;3.38;;;;;;;;;;5054559;28;20067;-52
2023/12/27 05:45:30;;;;;;;5.90;3.20;;;;;;;;;;5056714;28;20764;-54
2023/12/27 05:47:55;;;;;;;6.25;3.25;;;;;;;;;;5052919;28;20065;-53
2023/12/27 05:50:20;;;;;;;4.65;3.03;;;;;;;;;;5051019;28;20020;-54
2023/12/27 05:52:47;;;;;;;10.57;5.22;;;;;;;;;;5053483;28;20048;-53
2023/12/27 05:55:13;;;;;;;22.02;7.38;;;;;;;;;;5049877;28;20029;-50
2023/12/27 05:57:38;;;;;;;29.98;9.48;;;;;;;;;;5052732;28;20028;-54
2023/12/27 06:00:04;;;;;;;31.17;9.25;;;;;;;;;;5050809;28;20394;-52
2023/12/27 06:02:32;;;;;;;26.92;9.45;;;;;;;;;;5052347;28;20090;-55
2023/12/27 06:04:57;;;;;;;20.60;7.47;;;;;;;;;;5050294;28;20166;-57
2023/12/27 06:07:22;;;;;;;8.85;4.43;;;;;;;;;;5052761;28;20081;-53
2023/12/27 06:09:48;;;;;;;6.85;2.58;;;;;;;;;;5050785;28;20634;-55
2023/12/27 06:12:13;;;;;;;6.93;2.40;;;;;;;;;;5050128;28;20046;-53
2023/12/27 06:14:41;;;;;;;8.40;4.53;;;;;;;;;;5006946;28;20088;-52
2023/12/27 06:17:06;;;;;;;16.08;6.75;;;;;;;;;;5050691;28;20140;-52
2023/12/27 06:19:31;;;;;;;23.45;8.60;;;;;;;;;;5050070;28;20028;-55
2023/12/27 06:21:57;;;;;;;17.05;6.38;;;;;;;;;;5062309;28;20032;-55
2023/12/27 06:24:23;;;;;;;21.35;8.68;;;;;;;;;;5052027;28;20040;-56
2023/12/27 06:26:48;;;;;;;16.23;6.70;;;;;;;;;;5008313;28;20942;-56
2023/12/27 06:29:13;;;;;;;10.95;6.00;;;;;;;;;;5051437;28;20029;-55
2023/12/27 06:31:39;;;;;;;9.95;3.90;;;;;;;;;;5052392;28;20032;-57
2023/12/27 06:34:04;;;;;;;8.90;4.78;;;;;;;;;;5053099;28;20032;-54
2023/12/27 06:36:30;;;;;;;15.68;5.63;;;;;;;;;;5062609;28;20016;-56
2023/12/27 06:38:55;;;;;;;8.15;4.57;;;;;;;;;;5049380;28;20020;-56
2023/12/27 06:41:20;;;;;;;12.10;5.65;;;;;;;;;;5049786;28;20040;-51
2023/12/27 06:43:45;;;;;;;8.23;4.70;;;;;;;;;;5054436;28;20650;-55
2023/12/27 06:46:11;;;;;;;14.00;6.53;;;;;;;;;;5057208;28;21033;-55
2023/12/27 06:48:36;;;;;;;13.07;7.28;;;;;;;;;;5052278;28;20490;-54
2023/12/27 06:51:03;;;;;;;10.35;5.18;;;;;;;;;;5050797;28;22703;-56
2023/12/27 06:53:28;;;;;;;10.80;4.43;;;;;;;;;;5013455;28;20513;-55
2023/12/27 06:55:54;;;;;;;6.95;3.33;;;;;;;;;;5049262;28;20064;-52
2023/12/27 06:58:19;;;;;;;4.03;2.25;;;;;;;;;;5051173;28;20036;-54
2023/12/27 07:00:44;;;;;;;5.57;1.63;;;;;;;;;;5049599;28;20032;-52
2023/12/27 07:03:09;;;;;;;4.47;1.65;;;;;;;;;;5037968;28;20371;-55
2023/12/27 07:05:36;;;;;;;5.88;1.38;;;;;;;;;;5047608;28;20395;-55
2023/12/27 07:08:01;;;;;;;1.95;1.23;;;;;;;;;;5052146;28;20495;-53
2023/12/27 07:10:27;;;;;;;2.17;1.08;;;;;;;;;;5048915;28;20458;-53
2023/12/27 07:12:52;;;;;;;3.70;1.92;;;;;;;;;;5051282;28;20470;-53
2023/12/27 07:15:18;;;;;;;1.52;1.08;;;;;;;;;;5053235;28;20044;-57
2023/12/27 07:17:43;;;;;;;4.40;1.40;;;;;;;;;;5054443;28;20038;-56
2023/12/27 07:20:08;;;;;;;2.85;1.25;;;;;;;;;;5052318;28;20568;-56
2023/12/27 07:22:34;;;;;;;3.53;1.45;;;;;;;;;;5056497;28;20043;-56
2023/12/27 07:24:59;;;;;;;2.95;1.33;;;;;;;;;;5062529;28;20028;-55
2023/12/27 07:27:24;;;;;;;3.45;1.83;;;;;;;;;;5054149;28;20012;-55
2023/12/27 07:29:49;;;;;;;5.05;1.60;;;;;;;;;;5052221;28;20192;-54
2023/12/27 07:32:15;;;;;;;6.28;1.98;;;;;;;;;;5053878;28;20036;-55
2023/12/27 07:34:42;;;;;;;3.13;1.60;;;;;;;;;;5053100;28;20036;-51
2023/12/27 07:37:08;;;;;;;2.38;1.40;;;;;;;;;;5056087;28;20051;-56
2023/12/27 07:39:33;;;;;;;2.60;1.38;;;;;;;;;;5052599;28;20036;-54
2023/12/27 07:41:59;;;;;;;5.13;1.80;;;;;;;;;;5053249;28;20517;-57
2023/12/27 07:44:24;;;;;;;5.28;1.83;;;;;;;;;;5053355;28;20032;-55
2023/12/27 07:46:50;;;;;;;6.15;3.65;;;;;;;;;;5062594;28;20051;-56
2023/12/27 07:49:15;;;;;;;10.90;5.57;;;;;;;;;;5054075;28;20040;-54
2023/12/27 07:51:41;;;;;;;14.38;5.90;;;;;;;;;;5056790;28;20124;-56
2023/12/27 07:54:07;;;;;;;10.25;6.07;;;;;;;;;;4988744;28;20045;-55
2023/12/27 07:56:34;;;;;;;12.55;5.85;;;;;;;;;;4990867;28;20627;-55
2023/12/27 07:59:00;;;;;;;14.57;6.88;;;;;;;;;;4993024;28;20662;-55
2023/12/27 08:01:30;;;;;;;11.00;5.40;;;;;;;;;;4992506;28;20488;-58
2023/12/27 08:03:55;;;;;;;16.02;6.00;;;;;;;;;;4989480;28;20672;-56
2023/12/27 08:06:21;;;;;;;18.63;6.20;;;;;;;;;;4990676;28;21635;-55
2023/12/27 08:08:46;;;;;;;12.13;5.18;;;;;;;;;;4991138;28;20418;-52
2023/12/27 08:11:12;;;;;;;10.05;5.53;;;;;;;;;;4990032;28;20045;-57
2023/12/27 08:13:38;;;;;;;12.20;6.05;;;;;;;;;;4990471;28;20038;-52
2023/12/27 08:16:03;;;;;;;15.63;7.05;;;;;;;;;;4990883;28;20611;-53
2023/12/27 08:18:29;;;;;;;13.40;6.07;;;;;;;;;;4990228;28;20071;-54
2023/12/27 08:20:54;;;;;;;13.52;5.78;;;;;;;;;;4988549;28;20052;-54
2023/12/27 08:23:19;;;;;;;16.73;7.65;;;;;;;;;;4994723;28;20396;-52
2023/12/27 08:25:45;;;;;;;17.42;6.55;;;;;;;;;;5041362;28;20526;-57
2023/12/27 08:28:10;;;;;;;15.63;7.63;;;;;;;;;;5052440;28;20042;-55
2023/12/27 08:30:36;;;;;;;15.77;6.60;;;;;;;;;;5051041;28;20032;-55
2023/12/27 08:33:03;;;;;;;20.10;7.80;;;;;;;;;;5053742;28;20109;-54
2023/12/27 08:35:28;;;;;;;19.88;7.60;;;;;;;;;;5045436;28;20023;-53
2023/12/27 08:37:54;;;;;;;21.40;8.57;;;;;;;;;;5058947;28;20539;-55
2023/12/27 08:40:20;;;;;;;27.38;9.68;;;;;;;;;;5051163;28;20735;-57
2023/12/27 08:42:45;;;;;;;34.20;11.60;;;;;;;;;;5052409;28;20032;-58
2023/12/27 08:45:11;;;;;;;29.70;10.87;;;;;;;;;;5053256;28;20090;-56
2023/12/27 08:47:36;;;;;;;17.42;7.50;;;;;;;;;;5056234;28;20301;-54
2023/12/27 08:50:02;;;;;;;13.95;6.28;;;;;;;;;;5051927;28;20035;-56
2023/12/27 08:52:27;;;;;;;17.13;5.35;;;;;;;;;;5053695;28;20044;-56
2023/12/27 08:54:53;;;;;;;20.35;6.20;;;;;;;;;;5036075;28;20035;-54
2023/12/27 08:57:18;;;;;;;10.63;5.65;;;;;;;;;;5051198;28;20671;-57
2023/12/27 08:59:44;;;;;;;10.38;4.60;;;;;;;;;;5052075;28;20090;-56
2023/12/27 09:02:09;;;;;;;9.90;3.80;;;;;;;;;;5052248;28;20082;-57
2023/12/27 09:04:34;;;;;;;12.70;4.13;;;;;;;;;;5051715;28;20784;-53
2023/12/27 09:06:59;;;;;;;8.15;3.38;;;;;;;;;;5051617;28;21069;-57
2023/12/27 09:09:25;;;;;;;10.98;4.03;;;;;;;;;;5050534;28;20036;-57
2023/12/27 09:11:50;;;;;;;9.15;3.47;;;;;;;;;;5053986;28;20513;-55
2023/12/27 09:14:15;;;;;;;14.05;3.78;;;;;;;;;;5051983;28;20131;-56
2023/12/27 09:16:41;;;;;;;18.33;4.15;;;;;;;;;;5051020;28;20442;-57
2023/12/27 09:19:06;;;;;;;22.38;6.30;;;;;;;;;;5053052;28;20135;-54
2023/12/27 09:21:31;;;;;;;17.13;5.30;;;;;;;;;;5051152;28;20020;-55
2023/12/27 09:23:58;;;;;;;7.82;4.30;;;;;;;;;;5059993;28;20664;-55
2023/12/27 09:26:23;;;;;;;9.40;4.20;;;;;;;;;;5052595;28;20059;-54
2023/12/27 09:28:48;;;;;;;12.52;3.92;;;;;;;;;;5052304;28;20474;-56
2023/12/27 09:31:13;;;;;;;6.68;3.63;;;;;;;;;;5036008;28;20046;-52
2023/12/27 09:33:42;;;;;;;8.25;3.67;;;;;;;;;;5052714;28;20055;-56
2023/12/27 09:36:07;;;;;;;9.20;4.22;;;;;;;;;;5048417;28;21031;-57
2023/12/27 09:38:33;;;;;;;17.67;5.78;;;;;;;;;;5051189;28;20035;-54
2023/12/27 09:40:58;;;;;;;10.38;3.28;;;;;;;;;;5050451;28;20029;-55
2023/12/27 09:43:24;;;;;;;7.30;3.88;;;;;;;;;;5051734;28;20028;-56
2023/12/27 09:45:52;;;;;;;7.95;4.07;;;;;;;;;;5056395;28;20040;-57
2023/12/27 09:48:18;;;;;;;17.67;4.45;;;;;;;;;;5052000;28;20387;-56
2023/12/27 09:50:43;;;;;;;12.40;4.63;;;;;;;;;;5051311;28;20644;-56
2023/12/27 09:53:12;;;;;;;8.40;3.70;;;;;;;;;;5051916;28;20032;-56
2023/12/27 09:55:37;;;;;;;5.85;2.45;;;;;;;;;;5054331;28;21061;-56
2023/12/27 09:58:03;;;;;;;5.40;1.88;;;;;;;;;;5052450;28;20043;-56
2023/12/27 10:00:29;;;;;;;3.42;1.50;;;;;;;;;;5049605;28;20553;-56
2023/12/27 10:02:58;;;;;;;5.43;1.50;;;;;;;;;;5054505;28;20043;-52
2023/12/27 10:05:26;;;;;;;3.87;1.40;;;;;;;;;;5049728;28;20047;-53
2023/12/27 10:07:52;;;;;;;4.18;1.20;;;;;;;;;;5051216;28;20501;-56
2023/12/27 10:10:18;;;;;;;4.82;1.38;;;;;;;;;;5062784;28;20031;-53
2023/12/27 10:12:43;;;;;;;3.65;1.30;;;;;;;;;;5050810;28;20435;-56
2023/12/27 10:15:09;;;;;;;3.30;1.17;;;;;;;;;;5050419;28;22736;-54
2023/12/27 10:17:34;;;;;;;2.67;1.23;;;;;;;;;;5050819;28;20697;-57
2023/12/27 10:19:59;;;;;;;2.47;1.30;;;;;;;;;;5048932;28;20028;-50
2023/12/27 10:22:26;;;;;;;3.70;1.25;;;;;;;;;;5056752;28;20350;-55
2023/12/27 10:24:52;;;;;;;3.60;1.20;;;;;;;;;;5054926;28;20379;-54
2023/12/27 10:27:17;;;;;;;9.20;1.67;;;;;;;;;;5004275;28;20082;-52
2023/12/27 10:29:48;;;;;;;6.63;1.70;;;;;;;;;;5049985;28;22489;-50
2023/12/27 10:32:14;;;;;;;6.85;1.83;;;;;;;;;;5050122;28;20269;-55
2023/12/27 10:34:40;;;;;;;4.63;1.42;;;;;;;;;;5050863;28;20037;-54
2023/12/27 10:37:11;;;;;;;2.03;1.23;;;;;;;;;;5057793;28;20131;-53
2023/12/27 10:39:37;;;;;;;4.00;1.35;;;;;;;;;;5052782;28;20044;-52
2023/12/27 10:42:03;;;;;;;4.45;1.05;;;;;;;;;;5050062;28;20036;-51
2023/12/27 10:44:30;;;;;;;2.25;1.10;;;;;;;;;;5052956;28;20032;-58
2023/12/27 10:46:56;;;;;;;1.35;1.00;;;;;;;;;;5058203;28;20405;-56
2023/12/27 10:49:22;;;;;;;3.17;1.10;;;;;;;;;;5052682;28;20501;-55
2023/12/27 10:51:48;;;;;;;2.65;1.33;;;;;;;;;;5058722;28;20097;-56
2023/12/27 10:54:13;;;;;;;5.03;1.30;;;;;;;;;;5052858;28;22357;-54
2023/12/27 10:56:39;;;;;;;2.38;1.02;;;;;;;;;;5040293;28;20025;-56
2023/12/27 10:59:08;;;;;;;3.35;1.45;;;;;;;;;;5053905;28;20615;-55
2023/12/27 11:01:33;;;;;;;;;;;;;;;;;;5057710;28;20127;-52
2023/12/27 11:04:00;;;;;;;3.10;1.27;;;;;;;;;;5057039;28;20452;-53
2023/12/27 11:06:26;;;;;;;3.78;1.25;;;;;;;;;;5055433;28;20028;-57
2023/12/27 11:08:53;;;;;;;4.70;1.23;;;;;;;;;;5052526;28;20056;-54
2023/12/27 11:11:19;;;;;;;3.47;1.30;;;;;;;;;;5054393;28;20051;-58
2023/12/27 11:13:47;;;;;;;5.47;1.73;;;;;;;;;;5055332;28;20093;-52
2023/12/27 11:16:12;;;;;;;3.95;1.70;;;;;;;;;;5053460;28;20032;-52
2023/12/27 11:18:38;;;;;;;3.03;1.63;;;;;;;;;;5054663;28;20036;-55
2023/12/27 11:21:03;;;;;;;3.60;1.58;;;;;;;;;;5055645;28;20062;-51
2023/12/27 11:23:29;;;;;;;2.70;1.63;;;;;;;;;;5064403;28;20470;-53
2023/12/27 11:25:55;;;;;;;4.88;2.03;;;;;;;;;;5032736;28;20037;-53
2023/12/27 11:28:20;;;;;;;6.28;1.60;;;;;;;;;;5053856;28;20475;-57
2023/12/27 11:30:46;;;;;;;2.17;1.25;;;;;;;;;;5054257;28;20035;-54
2023/12/27 11:33:17;;;;;;;3.17;1.33;;;;;;;;;;5056104;28;20046;-57
2023/12/27 11:35:42;;;;;;;3.53;1.45;;;;;;;;;;5051690;28;20040;-55
2023/12/27 11:38:15;;;;;;;4.45;1.45;;;;;;;;;;5053468;28;20060;-55
2023/12/27 11:40:43;;;;;;;6.35;1.92;;;;;;;;;;5037300;28;20040;-55
2023/12/27 11:43:08;;;;;;;4.45;1.55;;;;;;;;;;5053912;28;20063;-54
2023/12/27 11:45:56;;;;;;;8.18;2.08;;;;;;;;;;5058880;28;20020;-53
2023/12/27 11:48:21;;;;;;;2.55;1.52;;;;;;;;;;5056280;28;20046;-53
2023/12/27 11:50:47;;;;;;;6.60;1.67;;;;;;;;;;5054299;28;20036;-55
2023/12/27 11:53:13;;;;;;;2.85;1.40;;;;;;;;;;5053263;28;20422;-50
2023/12/27 11:55:41;;;;;;;4.57;1.77;;;;;;;;;;5052990;28;20043;-55
2023/12/27 11:58:06;;;;;;;3.33;1.63;;;;;;;;;;5040577;28;20043;-55
2023/12/27 12:00:31;;;;;;;7.05;1.77;;;;;;;;;;5053362;28;20028;-53
2023/12/27 12:02:58;;;;;;;3.03;1.60;;;;;;;;;;5053259;28;20044;-56
2023/12/27 12:05:43;;;;;;;6.13;1.67;;;;;;;;;;5052613;28;20264;-54
2023/12/27 12:08:27;;;;;;;5.82;1.90;;;;;;;;;;5056007;28;20522;-56
2023/12/27 12:11:05;;;;;;;4.22;1.10;;;;;;;;;;5052820;28;20109;-55
2023/12/27 12:13:30;;;;;;;2.97;1.20;;;;;;;;;;5052439;28;20066;-52
2023/12/27 12:15:55;;;;;;;3.92;1.60;;;;;;;;;;5050993;28;20545;-54
2023/12/27 12:18:21;;;;;;;2.33;1.35;;;;;;;;;;5052938;28;20032;-57
2023/12/27 12:20:47;;;;;;;3.97;1.60;;;;;;;;;;5053866;28;20502;-54
2023/12/27 12:23:13;;;;;;;7.20;2.90;;;;;;;;;;5054067;28;20329;-55
2023/12/27 12:25:42;;;;;;;10.35;3.78;;;;;;;;;;5007366;28;20055;-52
2023/12/27 12:28:07;;;;;;;11.57;3.30;;;;;;;;;;5062971;28;20115;-53
2023/12/27 12:30:32;;;;;;;6.13;2.83;;;;;;;;;;5020624;28;20036;-51
2023/12/27 12:32:57;;;;;;;5.47;1.98;;;;;;;;;;5055845;28;20305;-52
2023/12/27 12:35:24;;;;;;;5.35;1.52;;;;;;;;;;5052675;28;20414;-57
2023/12/27 12:37:50;;;;;;;4.70;1.75;;;;;;;;;;5060525;28;21784;-54
2023/12/27 12:40:15;;;;;;;4.80;1.17;;;;;;;;;;5050462;28;20583;-52
2023/12/27 12:42:41;;;;;;;3.53;1.35;;;;;;;;;;5051636;28;20027;-53
2023/12/27 12:45:07;;;;;;;2.50;1.40;;;;;;;;;;5053006;28;20121;-55
2023/12/27 12:47:32;;;;;;;7.15;1.27;;;;;;;;;;5058300;28;20056;-55
2023/12/27 12:49:58;;;;;;;3.88;1.98;;;;;;;;;;5051195;28;20506;-55
2023/12/27 12:52:24;;;;;;;3.65;1.08;;;;;;;;;;5054575;28;20556;-56
2023/12/27 12:54:49;;;;;;;3.40;1.10;;;;;;;;;;5050472;28;20028;-57
2023/12/27 12:57:15;;;;;;;3.45;1.30;;;;;;;;;;5053082;28;21622;-56
2023/12/27 12:59:41;;;;;;;5.03;1.20;;;;;;;;;;5050841;28;20028;-56
2023/12/27 13:02:06;;;;;;;4.20;1.38;;;;;;;;;;5053125;28;20032;-53
2023/12/27 13:04:31;;;;;;;8.50;2.03;;;;;;;;;;5037003;28;20470;-56
2023/12/27 13:07:00;;;;;;;174.88;40.55;;;;;;;;;;5034856;28;20180;-55
2023/12/27 13:09:25;;;;;;;4.00;1.23;;;;;;;;;;5051791;28;20038;-54
2023/12/27 13:11:51;;;;;;;4.47;1.27;;;;;;;;;;5052982;28;21865;-53
2023/12/27 13:14:16;;;;;;;2.22;1.20;;;;;;;;;;5051256;28;20036;-54
2023/12/27 13:16:41;;;;;;;6.20;1.00;;;;;;;;;;5053530;28;20394;-55
2023/12/27 13:19:06;;;;;;;2.43;1.10;;;;;;;;;;5050838;28;20145;-55
2023/12/27 13:21:32;;;;;;;3.25;1.02;;;;;;;;;;5053360;28;20753;-54
2023/12/27 13:23:57;;;;;;;2.70;1.17;;;;;;;;;;5049901;28;20124;-54
2023/12/27 13:26:23;;;;;;;9.40;1.67;;;;;;;;;;5051851;28;20032;-53
2023/12/27 13:28:49;;;;;;;5.30;1.40;;;;;;;;;;5051404;28;20119;-54
2023/12/27 13:31:15;;;;;;;163.30;29.98;;;;;;;;;;5050679;28;20028;-53
2023/12/27 13:33:41;;;;;;;3.25;1.20;;;;;;;;;;5041041;28;20032;-51
2023/12/27 13:36:06;;;;;;;6.80;1.80;;;;;;;;;;5051146;28;20422;-57
2023/12/27 13:38:32;;;;;;;5.05;1.90;;;;;;;;;;5051356;28;20035;-56
2023/12/27 13:40:57;;;;;;;12.27;2.42;;;;;;;;;;5050428;28;20124;-55
2023/12/27 13:43:22;;;;;;;15.48;1.90;;;;;;;;;;5019079;28;20040;-54
2023/12/27 13:45:47;;;;;;;7.32;1.90;;;;;;;;;;5054390;28;20516;-56
2023/12/27 13:48:13;;;;;;;6.82;2.25;;;;;;;;;;5053306;28;20849;-53
2023/12/27 13:50:38;;;;;;;4.82;1.60;;;;;;;;;;5051136;28;20356;-56
2023/12/27 13:53:03;;;;;;;4.75;2.10;;;;;;;;;;5051896;28;20036;-53
2023/12/27 13:55:29;;;;;;;7.40;2.00;;;;;;;;;;5052544;28;20043;-51
2023/12/27 13:57:55;;;;;;;5.50;2.08;;;;;;;;;;5051422;28;20024;-55
2023/12/27 14:00:20;;;;;;;8.75;2.13;;;;;;;;;;5050481;28;20028;-56
2023/12/27 14:02:48;;;;;;;25.73;5.70;;;;;;;;;;5019613;28;20047;-54
2023/12/27 14:05:13;;;;;;;22.38;5.63;;;;;;;;;;5052158;28;20035;-52
2023/12/27 14:07:39;;;;;;;8.45;3.30;;;;;;;;;;5037914;28;20031;-53
2023/12/27 14:10:04;;;;;;;13.80;4.70;;;;;;;;;;5050650;28;20155;-53
2023/12/27 14:12:30;;;;;;;15.27;5.30;;;;;;;;;;5052083;28;20121;-51
2023/12/27 14:14:57;;;;;;;16.58;5.53;;;;;;;;;;5049755;28;20099;-55
2023/12/27 14:17:22;;;;;;;13.95;4.68;;;;;;;;;;5051938;28;20027;-55
2023/12/27 14:19:47;;;;;;;16.42;4.32;;;;;;;;;;5051163;28;20479;-52
2023/12/27 14:22:12;;;;;;;15.05;4.68;;;;;;;;;;5060666;28;20043;-55
2023/12/27 14:24:38;;;;;;;13.35;4.22;;;;;;;;;;5050349;28;20097;-52
2023/12/27 14:27:03;;;;;;;14.57;5.90;;;;;;;;;;5046928;28;20038;-55
2023/12/27 14:32:07;;;;;;;12.25;3.60;;;;;;;;;;5048760;27;20825;-54